WetterOnline ( http://www.wetteronline.de )

Wetter aktuell Gelsenkirchen

Aktuelles Wetter: Essen (161m)

6-stündlich | Neueste Meldungen
Ortszeit Temperatur Wetter
Do, 15.11. 13:00 9.7° C wolkenlos
Do, 15.11. 7:00 4.7° C wolkenlos
Do, 15.11. 1:00 6.3° C fast wolkenlos
Mi, 14.11. 19:00 8.5° C leicht bewölkt
Mi, 14.11. 13:00 11.2° C fast wolkenlos
Mi, 14.11. 7:00 6.6° C bedeckt
Mi, 14.11. 1:00 7.8° C leicht bewölkt
Di, 13.11. 19:00 9.9° C wolkenlos
Ortszeit Temperatur Wetter
Do, 15.11. 18:00 6.0° C wolkenlos
Do, 15.11. 17:50 6.0° C wolkenlos
Do, 15.11. 17:40 6.1° C wolkenlos
Do, 15.11. 17:30 6.6° C leicht bewölkt
Do, 15.11. 17:20 6.6° C leicht bewölkt
Do, 15.11. 17:10 6.6° C leicht bewölkt
Do, 15.11. 17:00 7.3° C leicht bewölkt
Do, 15.11. 16:30 8.2° C wolkenlos
Do, 15.11. 16:00 9.3° C wolkenlos
Do, 15.11. 15:30 9.8° C leicht bewölkt
Do, 15.11. 15:00 10.2° C wolkenlos
Ortszeit Relative Feuchte Sichtweite
Do, 15.11. 13:00 70% 40 km
Do, 15.11. 7:00 90% 15 km
Do, 15.11. 1:00 88% 16 km
Mi, 14.11. 19:00 79% 45 km
Mi, 14.11. 13:00 70% 45 km
Mi, 14.11. 7:00 91% 23 km
Mi, 14.11. 1:00 87% 35 km
Di, 13.11. 19:00 79% 40 km
Ortszeit Relative Feuchte Sichtweite
Do, 15.11. 18:00 82% 45 km
Do, 15.11. 17:50 82% -
Do, 15.11. 17:40 81% -
Do, 15.11. 17:30 79% 55 km
Do, 15.11. 17:20 79% -
Do, 15.11. 17:10 79% -
Do, 15.11. 17:00 77% 50 km
Do, 15.11. 16:30 74% 50 km
Do, 15.11. 16:00 70% 50 km
Do, 15.11. 15:30 69% 50 km
Do, 15.11. 15:00 69% 40 km
Ortszeit Niederschlagsmenge Niederschlagsart
Do, 15.11. 13:00 0.0 l/m2 in 6 Std. -
Do, 15.11. 7:00 0.0 l/m2 in 12 Std. -
Do, 15.11. 1:00 0.0 l/m2 in 6 Std. -
Mi, 14.11. 19:00 0.0 l/m2 in 12 Std. -
Mi, 14.11. 13:00 0.0 l/m2 in 6 Std. -
Mi, 14.11. 7:00 0.0 l/m2 in 12 Std. -
Mi, 14.11. 1:00 0.0 l/m2 in 6 Std. -
Di, 13.11. 19:00 0.0 l/m2 in 12 Std. -
Ortszeit Niederschlagsmenge Niederschlagsart
Do, 15.11. 18:00 0.0 l/m2 in 1 Std. -
Do, 15.11. 17:50 keine Meldung -
Do, 15.11. 17:40 keine Meldung -
Do, 15.11. 17:30 0.0 l/m2 in 1 Std. -
Do, 15.11. 17:20 keine Meldung -
Do, 15.11. 17:10 keine Meldung -
Do, 15.11. 17:00 0.0 l/m2 in 1 Std. -
Do, 15.11. 16:30 0.0 l/m2 in 1 Std. -
Do, 15.11. 16:00 0.0 l/m2 in 1 Std. -
Do, 15.11. 15:30 0.0 l/m2 in 1 Std. -
Do, 15.11. 15:00 0.0 l/m2 in 1 Std. -
Ortszeit Stärke Spitze Richtung
km/h Bft. km/h Grad Sektor
Do, 15.11. 13:00 7 2 14 200° S
Do, 15.11. 7:00 7 2 29 190° S
Do, 15.11. 1:00 15 3 28 170° S
Mi, 14.11. 19:00 14 3 25 160° S
Mi, 14.11. 13:00 17 3 26 160° S
Mi, 14.11. 7:00 9 2 20 180° S
Mi, 14.11. 1:00 13 3 28 210° SW
Di, 13.11. 19:00 15 3 44 230° SW
Ortszeit Stärke Spitze Richtung
km/h Bft. km/h Grad Sektor
Do, 15.11. 18:00 11 2 17 180° S
Do, 15.11. 17:50 11 2 - 180° S
Do, 15.11. 17:40 9 2 - 180° S
Do, 15.11. 17:30 9 2 15 180° S
Do, 15.11. 17:20 9 2 - 180° S
Do, 15.11. 17:10 11 2 - 180° S
Do, 15.11. 17:00 7 2 14 180° S
Do, 15.11. 16:30 7 2 13 180° S
Do, 15.11. 16:00 7 2 14 200° S
Do, 15.11. 15:30 9 2 13 200° S
Do, 15.11. 15:00 7 2 18 170° S
Ortszeit Untergrenze Bedeckung Gattung
total tief tief mittel hoch
Do, 15.11. 13:00 9000 m 0/8 0/8 - - -
Do, 15.11. 7:00 - 0/8 0/8 - - -
Do, 15.11. 1:00 1080 m 1/8 1/8 - - -
Mi, 14.11. 19:00 10500 m 3/8 0/8 - - -
Mi, 14.11. 13:00 990 m 1/8 1/8 - - -
Mi, 14.11. 7:00 - 8/8 - - - -
Mi, 14.11. 1:00 1500 m 2/8 2/8 - - -
Di, 13.11. 19:00 - 0/8 0/8 - - -
Ortszeit Bedeckungsgrad in Achtel und Wolkenuntergrenze
Do, 15.11. 18:00 keine Wolken
Do, 15.11. 17:50 keine Wolken
Do, 15.11. 17:40 keine Wolken
Do, 15.11. 17:30 3(9000m)
Do, 15.11. 17:20 3(9000m)
Do, 15.11. 17:10 6(9000m)
Do, 15.11. 17:00 5(9000m)
Do, 15.11. 16:30 1(9000m)
Do, 15.11. 16:00 keine Wolken
Do, 15.11. 15:30 3(9000m)
Do, 15.11. 15:00 keine Wolken
Ortszeit Luftdruck NN (hPa) Tendenz (hPa in 3 Std.)
Do, 15.11. 13:00 1026 - 0,4
Do, 15.11. 7:00 1026 + 0,1
Do, 15.11. 1:00 1027 0,0
Mi, 14.11. 19:00 1027 - 0,9
Mi, 14.11. 13:00 1029 - 0,7
Mi, 14.11. 7:00 1029 - 0,7
Mi, 14.11. 1:00 1030 + 0,7
Di, 13.11. 19:00 1028 + 2,0
Ortszeit Luftdruck NN (hPa) Tendenz (hPa in 3 Std.)
Do, 15.11. 18:00 1026 0,0
Do, 15.11. 17:50 1026 keine Meldung
Do, 15.11. 17:40 1026 keine Meldung
Do, 15.11. 17:30 1026 0,0
Do, 15.11. 17:20 1026 keine Meldung
Do, 15.11. 17:10 1026 keine Meldung
Do, 15.11. 17:00 1026 0,0
Do, 15.11. 16:30 1026 - 0,1
Do, 15.11. 16:00 1026 - 0,3
Do, 15.11. 15:30 1026 - 0,5
Do, 15.11. 15:00 1026 - 0,7
Ortszeit Schneehöhe (cm)
Do, 15.11. 13:00 0
Do, 15.11. 7:00 0
Do, 15.11. 1:00 0
Mi, 14.11. 19:00 0
Mi, 14.11. 13:00 0
Mi, 14.11. 7:00 0
Mi, 14.11. 1:00 0
Di, 13.11. 19:00 0
Ortszeit Schneehöhe (cm)
Do, 15.11. 18:00 0
Do, 15.11. 17:50 0
Do, 15.11. 17:40 0
Do, 15.11. 17:30 0
Do, 15.11. 17:20 0
Do, 15.11. 17:10 0
Do, 15.11. 17:00 0
Do, 15.11. 16:30 0
Do, 15.11. 16:00 0
Do, 15.11. 15:30 0
Do, 15.11. 15:00 0
Link zu dieser Seite / Seite empfehlen

Das Wetter in ...